18FA weather

CLOSED Tropical Plantation Airport
Palm City, Florida, United States

Public forecast

Using degrees Fahrenheit for public forecast. Weather courtesy of forecast.io.

METAR (pilot weather report)

Closest report is Witham Field, 6.4 nm (11.8 km) NE. Retrieved 2019/06/17 10:47 UTC (37 minutes ago):

KSUA 171047Z 16018G23KT 5SM -RA BKN019 25/22 A3006

TAF (pilot weather forecast)

Closest forecast is Witham Field, 6.4 nm (11.8 km) NE. Retrieved 2019/06/17 10:33 UTC (51 minutes ago):

TAF KSUA 171031Z 1710/1806 14007KT P6SM VCSH SCT018 BKN035 TEMPO 1711/1712 17018G28KT 1SM +SHRA BKN018 FM171500 14014G19KT P6SM VCSH FEW035 BKN100 TEMPO 1716/1719 3SM TSRA BKN030CB FM180000 18005KT P6SM SCT025 BKN100